createdAt,value
2023-07-24T00:02:16.021Z,21.41
2023-07-24T00:04:42.385Z,21.40
2023-07-24T00:07:08.764Z,21.41
2023-07-24T00:09:35.171Z,21.40
2023-07-24T00:12:01.676Z,21.41
2023-07-24T00:14:28.044Z,21.42
2023-07-24T00:16:54.430Z,21.41
2023-07-24T00:19:20.883Z,21.40
2023-07-24T00:21:47.247Z,21.40
2023-07-24T00:24:13.632Z,21.39
2023-07-24T00:26:40.034Z,21.41
2023-07-24T00:29:06.390Z,21.40
2023-07-24T00:31:32.751Z,21.41
2023-07-24T00:34:01.381Z,21.42
2023-07-24T00:36:28.020Z,21.40
2023-07-24T00:38:54.811Z,21.43
2023-07-24T00:41:21.180Z,21.43
2023-07-24T00:43:47.530Z,21.43
2023-07-24T00:46:13.930Z,21.43
2023-07-24T00:48:40.326Z,21.44
2023-07-24T00:51:06.703Z,21.42
2023-07-24T00:53:33.062Z,21.41
2023-07-24T00:55:59.446Z,21.42
2023-07-24T00:58:26.167Z,21.40
2023-07-24T01:00:52.604Z,21.41
2023-07-24T01:03:19.000Z,21.40
2023-07-24T01:05:45.376Z,21.40
2023-07-24T01:08:11.746Z,21.40
2023-07-24T01:10:38.142Z,21.41
2023-07-24T01:13:17.152Z,21.41
2023-07-24T01:15:45.201Z,21.41
2023-07-24T01:18:11.769Z,21.40
2023-07-24T01:20:38.993Z,21.40
2023-07-24T01:23:23.992Z,21.41
2023-07-24T01:25:53.161Z,21.42
2023-07-24T01:28:19.561Z,21.42
2023-07-24T01:30:45.961Z,21.42
2023-07-24T01:33:12.412Z,21.43
2023-07-24T01:35:39.087Z,21.42
2023-07-24T01:38:05.815Z,21.42
2023-07-24T01:40:32.178Z,21.42
2023-07-24T01:43:00.570Z,21.42
2023-07-24T01:45:26.983Z,21.41
2023-07-24T01:47:53.454Z,21.41
2023-07-24T01:50:20.094Z,21.40
2023-07-24T01:52:46.464Z,21.40
2023-07-24T01:55:12.852Z,21.41
2023-07-24T01:57:39.248Z,21.39
2023-07-24T02:00:08.047Z,21.40
2023-07-24T02:02:34.470Z,21.41
2023-07-24T02:05:00.923Z,21.40
2023-07-24T02:07:27.279Z,21.40
2023-07-24T02:09:53.646Z,21.40
2023-07-24T02:12:20.000Z,21.40
2023-07-24T02:14:49.320Z,21.40
2023-07-24T02:17:15.675Z,21.41
2023-07-24T02:19:42.060Z,21.41
2023-07-24T02:22:08.429Z,21.42
2023-07-24T02:24:36.608Z,21.36
2023-07-24T02:27:03.006Z,21.41
2023-07-24T02:29:29.440Z,21.42
2023-07-24T02:31:55.967Z,21.46
2023-07-24T02:34:27.327Z,21.42
2023-07-24T02:36:54.879Z,21.50
2023-07-24T02:39:21.461Z,21.50
2023-07-24T02:41:50.849Z,21.49
2023-07-24T02:44:17.237Z,21.51
2023-07-24T02:46:43.833Z,21.51
2023-07-24T02:49:10.253Z,21.49
2023-07-24T02:51:36.687Z,21.47
2023-07-24T02:54:03.302Z,21.51
2023-07-24T02:56:29.971Z,21.52
2023-07-24T02:58:56.462Z,21.51
2023-07-24T03:01:23.001Z,21.52
2023-07-24T03:03:50.522Z,21.52
2023-07-24T03:06:17.130Z,21.53
2023-07-24T03:08:43.906Z,21.54
2023-07-24T03:11:10.298Z,21.53
2023-07-24T03:13:36.707Z,21.52
2023-07-24T03:16:03.908Z,21.52
2023-07-24T03:18:30.387Z,21.52
2023-07-24T03:20:58.128Z,21.51
2023-07-24T03:23:24.496Z,21.50
2023-07-24T03:25:50.867Z,21.49
2023-07-24T03:28:17.244Z,21.48
2023-07-24T03:30:43.656Z,21.46
2023-07-24T03:33:10.135Z,21.48
2023-07-24T03:35:36.511Z,21.46
2023-07-24T03:38:02.957Z,21.46
2023-07-24T03:40:29.348Z,21.44
2023-07-24T03:42:55.727Z,21.44
2023-07-24T03:45:22.571Z,21.44
2023-07-24T03:47:48.969Z,21.43
2023-07-24T03:50:15.373Z,21.43
2023-07-24T03:52:41.752Z,21.43
2023-07-24T03:55:09.074Z,21.43
2023-07-24T03:57:35.554Z,21.43
2023-07-24T04:00:02.316Z,21.43
2023-07-24T04:02:28.759Z,21.44
2023-07-24T04:04:55.156Z,21.44
2023-07-24T04:07:21.523Z,21.46
2023-07-24T04:09:47.903Z,21.47
2023-07-24T04:12:14.284Z,21.47
2023-07-24T04:14:40.659Z,21.48
2023-07-24T04:17:07.034Z,21.49
2023-07-24T04:19:34.520Z,21.50
2023-07-24T04:22:00.875Z,21.50
2023-07-24T04:24:27.254Z,21.51
2023-07-24T04:26:53.620Z,21.55
2023-07-24T04:29:24.668Z,21.56
2023-07-24T04:31:51.529Z,21.58
2023-07-24T04:34:17.947Z,21.64
2023-07-24T04:36:44.315Z,21.74
2023-07-24T04:39:10.694Z,21.75
2023-07-24T04:41:37.127Z,21.81
2023-07-24T04:44:03.542Z,21.82
2023-07-24T04:46:30.318Z,21.83
2023-07-24T04:48:57.013Z,21.84
2023-07-24T04:51:23.364Z,21.82
2023-07-24T04:53:49.790Z,21.78
2023-07-24T04:56:16.218Z,21.75
2023-07-24T04:58:42.595Z,21.78
2023-07-24T05:01:10.230Z,21.77
2023-07-24T05:03:36.622Z,21.78
2023-07-24T05:06:03.012Z,21.76
2023-07-24T05:08:29.372Z,21.71
2023-07-24T05:10:56.835Z,21.69
2023-07-24T05:13:23.204Z,21.68
2023-07-24T05:15:49.582Z,21.67
2023-07-24T05:18:15.952Z,21.65
2023-07-24T05:20:46.536Z,21.66
2023-07-24T05:23:12.893Z,21.64
2023-07-24T05:25:39.341Z,21.63
2023-07-24T05:28:05.689Z,21.64
2023-07-24T05:30:32.233Z,21.62
2023-07-24T05:32:58.631Z,21.61
2023-07-24T05:35:24.994Z,21.62
2023-07-24T05:37:51.367Z,21.62
2023-07-24T05:40:17.737Z,21.61
2023-07-24T05:42:44.557Z,21.62
2023-07-24T05:45:12.133Z,21.61
2023-07-24T05:47:38.515Z,21.61
2023-07-24T05:50:05.047Z,21.62
2023-07-24T05:52:31.424Z,21.62
2023-07-24T05:54:57.787Z,21.62
2023-07-24T05:57:24.221Z,21.63
2023-07-24T05:59:52.945Z,21.65
2023-07-24T06:02:19.351Z,21.66
2023-07-24T06:04:45.756Z,21.68
2023-07-24T06:07:12.186Z,21.70
2023-07-24T06:09:38.564Z,21.72
2023-07-24T06:12:05.113Z,21.73
2023-07-24T06:14:31.524Z,21.74
2023-07-24T06:16:58.023Z,21.73
2023-07-24T06:19:24.430Z,21.74
2023-07-24T06:21:50.827Z,21.84
2023-07-24T06:24:17.237Z,21.98
2023-07-24T06:26:43.622Z,22.06
2023-07-24T06:29:10.008Z,22.03
2023-07-24T06:31:36.482Z,22.04
2023-07-24T06:34:02.864Z,22.00
2023-07-24T06:36:31.892Z,21.86
2023-07-24T06:38:58.502Z,21.75
2023-07-24T06:41:24.881Z,21.67
2023-07-24T06:43:51.545Z,21.64
2023-07-24T06:46:17.976Z,21.67
2023-07-24T06:48:44.476Z,21.55
2023-07-24T06:51:10.868Z,21.59
2023-07-24T06:53:37.265Z,21.55
2023-07-24T06:56:03.679Z,21.48
2023-07-24T06:58:30.037Z,21.54
2023-07-24T07:00:56.406Z,21.58
2023-07-24T07:03:22.844Z,21.66
2023-07-24T07:05:49.296Z,21.57
2023-07-24T07:08:15.680Z,21.61
2023-07-24T07:10:42.055Z,21.62
2023-07-24T07:13:08.552Z,21.56
2023-07-24T07:15:36.262Z,21.71
2023-07-24T07:18:02.746Z,21.70
2023-07-24T07:20:29.149Z,21.55
2023-07-24T07:22:55.514Z,21.41
2023-07-24T07:25:21.962Z,21.39
2023-07-24T07:27:48.408Z,21.51
2023-07-24T07:30:14.782Z,21.51
2023-07-24T07:32:41.756Z,21.56
2023-07-24T07:35:08.410Z,21.57
2023-07-24T07:37:34.786Z,21.51
2023-07-24T07:40:01.278Z,21.52
2023-07-24T07:42:27.639Z,21.55
2023-07-24T07:44:54.000Z,21.29
2023-07-24T07:47:20.355Z,21.31
2023-07-24T07:49:46.725Z,21.44
2023-07-24T07:52:13.810Z,21.47
2023-07-24T07:54:40.220Z,21.44
2023-07-24T07:57:06.576Z,21.44
2023-07-24T07:59:34.800Z,21.53
2023-07-24T08:02:01.178Z,21.59
2023-07-24T08:04:27.555Z,21.63
2023-07-24T08:06:53.915Z,21.66
2023-07-24T08:09:22.211Z,21.69
2023-07-24T08:11:48.664Z,21.72
2023-07-24T08:14:15.022Z,21.75
2023-07-24T08:16:41.500Z,21.82
2023-07-24T08:19:07.987Z,21.90
2023-07-24T08:21:34.803Z,21.99
2023-07-24T08:24:02.916Z,22.06
2023-07-24T08:26:29.544Z,22.19
2023-07-24T08:28:56.098Z,22.24
2023-07-24T08:31:22.743Z,22.24
2023-07-24T08:33:49.275Z,22.23
2023-07-24T08:36:15.679Z,22.24
2023-07-24T08:38:42.113Z,22.28
2023-07-24T08:41:11.859Z,22.31
2023-07-24T08:43:38.518Z,22.28
2023-07-24T08:46:05.172Z,22.26
2023-07-24T08:48:41.393Z,22.25
2023-07-24T08:51:08.561Z,22.22
2023-07-24T08:53:36.878Z,22.23
2023-07-24T08:56:03.930Z,22.22
2023-07-24T08:58:30.299Z,22.23
2023-07-24T09:00:59.960Z,22.17
2023-07-24T09:03:26.531Z,22.23
2023-07-24T09:05:53.318Z,22.20
2023-07-24T09:08:38.287Z,22.31
2023-07-24T09:11:04.909Z,22.26
2023-07-24T09:13:31.436Z,22.32
2023-07-24T09:15:58.339Z,22.34
2023-07-24T09:18:24.702Z,22.29
2023-07-24T09:20:51.728Z,22.31
2023-07-24T09:25:53.626Z,22.36
2023-07-24T09:28:19.999Z,22.34
2023-07-24T09:30:53.461Z,22.40
2023-07-24T09:33:19.845Z,22.36
2023-07-24T09:35:46.377Z,22.39
2023-07-24T09:38:12.790Z,22.38
2023-07-24T09:40:43.659Z,22.48
2023-07-24T09:43:34.146Z,22.47
2023-07-24T09:46:02.479Z,22.44
2023-07-24T09:50:58.630Z,22.37
2023-07-24T09:53:35.749Z,22.50
2023-07-24T09:56:05.869Z,22.49
2023-07-24T09:58:35.580Z,22.47
2023-07-24T10:01:07.064Z,22.50
2023-07-24T10:03:41.325Z,22.48
2023-07-24T10:06:11.719Z,22.49
2023-07-24T10:08:38.085Z,22.28
2023-07-24T10:11:04.685Z,22.26
2023-07-24T10:13:31.143Z,22.34
2023-07-24T10:15:57.886Z,22.53
2023-07-24T10:18:27.576Z,22.47
2023-07-24T10:21:06.659Z,22.53
2023-07-24T10:23:36.707Z,22.49
2023-07-24T10:26:06.181Z,22.54
2023-07-24T10:28:42.105Z,22.52
2023-07-24T10:31:11.292Z,22.56
2023-07-24T10:33:42.307Z,22.56
2023-07-24T10:36:10.860Z,22.48
2023-07-24T10:38:43.620Z,22.60
2023-07-24T10:41:10.971Z,22.66
2023-07-24T10:43:48.522Z,22.67
2023-07-24T10:46:15.563Z,22.69
2023-07-24T10:48:45.223Z,22.70
2023-07-24T10:51:12.093Z,22.76
2023-07-24T10:53:38.902Z,22.69
2023-07-24T10:56:06.578Z,22.73
2023-07-24T10:58:33.015Z,22.71
2023-07-24T11:01:00.213Z,22.68
2023-07-24T11:03:26.652Z,22.76
2023-07-24T11:05:53.037Z,22.73
2023-07-24T11:08:20.018Z,22.68
2023-07-24T11:10:49.649Z,22.73
2023-07-24T11:13:16.586Z,22.78
2023-07-24T11:15:42.985Z,22.74
2023-07-24T11:18:09.566Z,22.78
2023-07-24T11:20:39.243Z,22.79
2023-07-24T11:23:05.658Z,22.77
2023-07-24T11:25:32.084Z,22.73
2023-07-24T11:27:58.457Z,22.76
2023-07-24T11:30:24.874Z,22.76
2023-07-24T11:32:51.662Z,22.84
2023-07-24T11:35:18.083Z,22.80
2023-07-24T11:37:44.452Z,22.77
2023-07-24T11:40:16.025Z,22.78
2023-07-24T11:42:45.599Z,22.74
2023-07-24T11:45:11.980Z,22.81
2023-07-24T11:47:50.844Z,22.89
2023-07-24T11:50:17.626Z,22.91
2023-07-24T11:52:47.814Z,22.91
2023-07-24T11:55:15.083Z,22.89
2023-07-24T11:57:41.538Z,22.93
2023-07-24T12:00:18.376Z,22.89
2023-07-24T12:02:44.844Z,22.89
2023-07-24T12:05:11.307Z,22.93
2023-07-24T12:07:37.725Z,22.93
2023-07-24T12:10:04.699Z,22.92
2023-07-24T12:12:47.573Z,22.94
2023-07-24T12:15:15.170Z,22.92
2023-07-24T12:17:41.774Z,22.93
2023-07-24T12:20:12.280Z,22.90
2023-07-24T12:22:38.733Z,22.95
2023-07-24T12:25:05.850Z,22.94
2023-07-24T12:27:32.246Z,22.97
2023-07-24T12:29:58.803Z,22.99
2023-07-24T12:32:25.243Z,22.98
2023-07-24T12:34:51.842Z,22.98
2023-07-24T12:37:18.497Z,22.99
2023-07-24T12:39:45.336Z,22.99
2023-07-24T12:42:12.102Z,22.99
2023-07-24T12:44:38.478Z,22.99
2023-07-24T12:47:05.081Z,22.99
2023-07-24T12:49:31.457Z,23.00
2023-07-24T12:51:57.837Z,23.01
2023-07-24T12:54:46.336Z,23.03
2023-07-24T12:57:10.694Z,23.00
2023-07-24T12:59:37.232Z,23.01
2023-07-24T13:02:03.666Z,22.97
2023-07-24T13:04:30.041Z,22.97
2023-07-24T13:06:56.482Z,22.96
2023-07-24T13:09:24.781Z,22.92
2023-07-24T13:11:52.533Z,22.90
2023-07-24T13:14:19.356Z,22.91
2023-07-24T13:16:45.835Z,22.92
2023-07-24T13:19:12.255Z,22.93
2023-07-24T13:21:38.716Z,22.98
2023-07-24T13:24:05.335Z,22.93
2023-07-24T13:26:32.171Z,22.98
2023-07-24T13:28:58.827Z,22.95
2023-07-24T13:31:25.254Z,22.91
2023-07-24T13:33:51.669Z,22.93
2023-07-24T13:36:18.020Z,22.89
2023-07-24T13:38:44.476Z,22.87
2023-07-24T13:41:10.860Z,22.80
2023-07-24T13:43:37.239Z,22.78
2023-07-24T13:46:08.553Z,22.76
2023-07-24T13:48:35.185Z,22.80
2023-07-24T13:51:01.540Z,22.67
2023-07-24T13:53:27.902Z,22.52
2023-07-24T13:55:54.253Z,22.49
2023-07-24T13:58:20.728Z,22.52
2023-07-24T14:00:47.149Z,22.43
2023-07-24T14:03:13.613Z,22.28
2023-07-24T14:05:40.117Z,22.22
2023-07-24T14:08:06.551Z,22.36
2023-07-24T14:10:32.980Z,22.41
2023-07-24T14:12:59.342Z,22.51
2023-07-24T14:15:25.782Z,22.57
2023-07-24T14:17:52.168Z,22.58
2023-07-24T14:20:18.559Z,22.56
2023-07-24T14:22:44.917Z,22.55
2023-07-24T14:25:11.314Z,22.57
2023-07-24T14:27:37.676Z,22.55
2023-07-24T14:30:04.287Z,22.53
2023-07-24T14:32:30.988Z,22.51
2023-07-24T14:34:57.440Z,22.50
2023-07-24T14:37:23.824Z,22.49
2023-07-24T14:39:50.588Z,22.49
2023-07-24T14:42:16.959Z,22.49
2023-07-24T14:44:43.331Z,22.50
2023-07-24T14:47:09.738Z,22.54
2023-07-24T14:49:36.092Z,22.55
2023-07-24T14:52:02.456Z,22.55
2023-07-24T14:54:28.822Z,22.56
2023-07-24T14:57:01.981Z,22.57
2023-07-24T14:59:37.029Z,22.58
2023-07-24T15:02:03.413Z,22.58
2023-07-24T15:04:29.791Z,22.59
2023-07-24T15:06:56.184Z,22.52
2023-07-24T15:09:22.534Z,22.57
2023-07-24T15:11:48.964Z,22.55
2023-07-24T15:14:15.545Z,22.57
2023-07-24T15:16:41.928Z,22.58
2023-07-24T15:19:08.282Z,22.58
2023-07-24T15:21:34.679Z,22.58
2023-07-24T15:24:01.058Z,22.63
2023-07-24T15:26:27.409Z,22.40
2023-07-24T15:28:53.778Z,22.24
2023-07-24T15:31:20.177Z,22.24
2023-07-24T15:33:46.564Z,22.12
2023-07-24T15:36:12.926Z,22.04
2023-07-24T15:38:39.350Z,21.95
2023-07-24T15:41:05.769Z,22.13
2023-07-24T15:43:33.083Z,22.11
2023-07-24T15:45:59.558Z,21.85
2023-07-24T15:48:26.898Z,22.09
2023-07-24T15:50:53.475Z,22.30
2023-07-24T15:53:19.843Z,22.38
2023-07-24T15:55:46.243Z,22.42
2023-07-24T15:58:12.636Z,22.44
2023-07-24T16:00:39.039Z,22.45
2023-07-24T16:03:05.632Z,22.45
2023-07-24T16:05:32.161Z,22.46
2023-07-24T16:07:58.569Z,22.47
2023-07-24T16:10:25.339Z,22.45
2023-07-24T16:12:51.762Z,22.47
2023-07-24T16:15:18.220Z,22.47
2023-07-24T16:20:14.031Z,22.46
2023-07-24T16:22:40.455Z,22.47
2023-07-24T16:25:06.970Z,22.47
2023-07-24T16:27:35.378Z,22.47
2023-07-24T16:30:02.298Z,22.46
2023-07-24T16:32:28.797Z,22.42
2023-07-24T16:34:55.255Z,22.46
2023-07-24T16:37:21.620Z,22.47
2023-07-24T16:39:47.998Z,22.47
2023-07-24T16:42:14.765Z,22.47
2023-07-24T16:44:41.143Z,22.47
2023-07-24T16:49:36.879Z,22.47
2023-07-24T16:52:04.025Z,22.45
2023-07-24T16:54:30.544Z,22.45
2023-07-24T16:56:56.973Z,22.44
2023-07-24T16:59:23.826Z,22.44
2023-07-24T17:01:50.863Z,22.42
2023-07-24T17:04:17.566Z,22.41
2023-07-24T17:06:44.617Z,22.43
2023-07-24T17:09:11.009Z,22.44
2023-07-24T17:11:37.385Z,22.41
2023-07-24T17:14:03.765Z,22.42
2023-07-24T17:16:31.082Z,22.42
2023-07-24T17:18:57.588Z,22.43
2023-07-24T17:21:23.971Z,22.43
2023-07-24T17:23:50.465Z,22.43
2023-07-24T17:26:16.922Z,22.43
2023-07-24T17:28:44.102Z,22.43
2023-07-24T17:31:10.571Z,22.40
2023-07-24T17:33:36.936Z,22.39
2023-07-24T17:36:03.391Z,22.40
2023-07-24T17:38:31.325Z,22.38
2023-07-24T17:40:57.759Z,22.38
2023-07-24T17:43:24.145Z,22.37
2023-07-24T17:45:50.514Z,22.37
2023-07-24T17:48:16.967Z,22.37
2023-07-24T17:50:43.356Z,22.36
2023-07-24T17:53:09.703Z,22.35
2023-07-24T17:55:36.089Z,22.34
2023-07-24T17:58:02.525Z,22.35
2023-07-24T18:00:29.080Z,22.36
2023-07-24T18:02:55.662Z,22.37
2023-07-24T18:05:22.062Z,22.35
2023-07-24T18:07:51.209Z,22.35
2023-07-24T18:10:21.131Z,22.34
2023-07-24T18:12:48.149Z,22.34
2023-07-24T18:15:14.493Z,22.34
2023-07-24T18:17:41.270Z,22.34
2023-07-24T18:20:07.871Z,22.34
2023-07-24T18:22:34.238Z,22.34
2023-07-24T18:25:00.625Z,22.35
2023-07-24T18:27:27.223Z,22.32
2023-07-24T18:29:53.573Z,22.33
2023-07-24T18:32:19.995Z,22.32
2023-07-24T18:34:46.429Z,22.32
2023-07-24T18:37:13.026Z,22.32
2023-07-24T18:39:40.166Z,22.33
2023-07-24T18:42:06.830Z,22.31
2023-07-24T18:44:34.714Z,22.31
2023-07-24T18:47:01.056Z,22.32
2023-07-24T18:49:27.458Z,22.32
2023-07-24T18:51:54.498Z,22.32
2023-07-24T18:54:22.302Z,22.31
2023-07-24T18:56:48.880Z,22.29
2023-07-24T18:59:15.838Z,22.29
2023-07-24T19:01:42.459Z,22.28
2023-07-24T19:04:08.848Z,22.27
2023-07-24T19:06:38.488Z,22.28
2023-07-24T19:09:05.532Z,22.26
2023-07-24T19:11:33.211Z,22.27
2023-07-24T19:13:59.852Z,22.27
2023-07-24T19:16:26.730Z,22.26
2023-07-24T19:18:53.353Z,22.26
2023-07-24T19:21:19.698Z,22.25
2023-07-24T19:23:46.048Z,22.25
2023-07-24T19:26:14.230Z,22.18
2023-07-24T19:28:40.617Z,22.19
2023-07-24T19:31:07.030Z,22.20
2023-07-24T19:33:33.486Z,22.20
2023-07-24T19:36:00.102Z,22.19
2023-07-24T19:38:26.568Z,22.19
2023-07-24T19:40:58.726Z,22.18
2023-07-24T19:43:26.177Z,22.18
2023-07-24T19:45:53.536Z,22.16
2023-07-24T19:48:23.870Z,22.15
2023-07-24T19:50:50.847Z,22.13
2023-07-24T19:53:19.229Z,22.14
2023-07-24T19:55:49.192Z,22.14
2023-07-24T19:58:30.659Z,22.14
2023-07-24T20:00:59.083Z,22.11
2023-07-24T20:03:25.927Z,22.13
2023-07-24T20:05:57.320Z,22.13
2023-07-24T20:08:25.392Z,22.03
2023-07-24T20:10:51.882Z,21.10
2023-07-24T20:13:18.241Z,21.32
2023-07-24T20:15:45.222Z,21.72
2023-07-24T20:18:11.680Z,21.86
2023-07-24T20:20:38.121Z,21.94
2023-07-24T20:23:04.553Z,21.98
2023-07-24T20:25:30.910Z,21.99
2023-07-24T20:27:57.300Z,22.01
2023-07-24T20:30:24.526Z,22.01
2023-07-24T20:32:50.962Z,22.02
2023-07-24T20:35:17.360Z,22.03
2023-07-24T20:37:44.263Z,22.03
2023-07-24T20:40:11.057Z,22.03
2023-07-24T20:42:37.681Z,22.02
2023-07-24T20:45:04.149Z,22.03
2023-07-24T20:47:31.085Z,22.04
2023-07-24T20:50:00.378Z,22.02
2023-07-24T20:52:26.764Z,22.03
2023-07-24T20:54:53.181Z,22.03
2023-07-24T20:57:19.573Z,22.01
2023-07-24T20:59:47.195Z,22.04
2023-07-24T21:02:14.401Z,22.02
2023-07-24T21:04:40.792Z,22.02
2023-07-24T21:07:10.664Z,22.02
2023-07-24T21:09:37.507Z,22.01
2023-07-24T21:12:04.457Z,22.01
2023-07-24T21:14:31.814Z,22.00
2023-07-24T21:16:58.805Z,22.00
2023-07-24T21:19:25.533Z,22.00
2023-07-24T21:21:51.900Z,21.99
2023-07-24T21:24:18.693Z,22.00
2023-07-24T21:26:45.122Z,22.00
2023-07-24T21:29:11.507Z,21.99
2023-07-24T21:31:37.977Z,21.99
2023-07-24T21:34:04.448Z,21.99
2023-07-24T21:36:30.833Z,21.99
2023-07-24T21:38:57.194Z,21.99
2023-07-24T21:41:23.561Z,21.99
2023-07-24T21:43:49.945Z,21.98
2023-07-24T21:46:16.378Z,21.98
2023-07-24T21:48:42.812Z,21.99
2023-07-24T21:51:09.234Z,21.99
2023-07-24T21:53:37.451Z,21.99
2023-07-24T21:56:04.017Z,21.98
2023-07-24T21:58:30.380Z,21.99
2023-07-24T22:00:56.817Z,21.99
2023-07-24T22:03:23.445Z,21.98
2023-07-24T22:05:49.884Z,21.98
2023-07-24T22:08:16.310Z,21.98
2023-07-24T22:10:42.732Z,21.95
2023-07-24T22:13:09.424Z,21.97
2023-07-24T22:15:35.803Z,21.97
2023-07-24T22:18:02.222Z,21.95
2023-07-24T22:20:39.210Z,21.95
2023-07-24T22:23:07.553Z,21.95
2023-07-24T22:25:33.916Z,21.94
2023-07-24T22:28:00.324Z,21.95
2023-07-24T22:30:27.430Z,21.93
2023-07-24T22:32:54.015Z,21.95
2023-07-24T22:35:20.613Z,21.95
2023-07-24T22:37:46.959Z,21.94
2023-07-24T22:40:13.521Z,21.94
2023-07-24T22:42:39.887Z,21.94
2023-07-24T22:45:06.565Z,21.93
2023-07-24T22:47:33.445Z,21.95
2023-07-24T22:49:59.966Z,21.94
2023-07-24T22:52:26.374Z,21.94
2023-07-24T22:54:54.082Z,21.94
2023-07-24T22:57:20.473Z,21.94
2023-07-24T22:59:46.845Z,21.94
2023-07-24T23:02:13.227Z,21.92
2023-07-24T23:04:39.581Z,21.92
2023-07-24T23:07:06.065Z,21.92
2023-07-24T23:09:32.480Z,21.91
2023-07-24T23:11:58.861Z,21.92
2023-07-24T23:14:25.240Z,21.90
2023-07-24T23:16:51.674Z,21.91
2023-07-24T23:19:18.082Z,21.91
2023-07-24T23:21:44.574Z,21.91
2023-07-24T23:24:10.937Z,21.89
2023-07-24T23:26:37.304Z,21.90
2023-07-24T23:29:03.769Z,21.89
2023-07-24T23:31:30.591Z,21.89
2023-07-24T23:33:57.228Z,21.88
2023-07-24T23:36:23.935Z,21.90
2023-07-24T23:38:50.327Z,21.91
2023-07-24T23:41:16.969Z,21.89
2023-07-24T23:43:43.353Z,21.90
2023-07-24T23:46:11.014Z,21.89
2023-07-24T23:48:37.404Z,21.90
2023-07-24T23:51:03.787Z,21.88
2023-07-24T23:53:30.387Z,21.88
2023-07-24T23:55:56.757Z,21.87
2023-07-24T23:58:23.125Z,21.87
